createdAt,value
2023-05-01T00:02:16.171Z,69.57
2023-05-01T00:04:46.653Z,69.41
2023-05-01T00:07:18.531Z,71.78
2023-05-01T00:09:49.724Z,70.44
2023-05-01T00:12:18.484Z,69.96
2023-05-01T00:14:47.280Z,69.92
2023-05-01T00:17:17.059Z,70.58
2023-05-01T00:19:49.176Z,72.63
2023-05-01T00:22:21.326Z,73.02
2023-05-01T00:24:51.339Z,75.06
2023-05-01T00:27:22.703Z,74.78
2023-05-01T00:29:54.709Z,74.50
2023-05-01T00:32:33.095Z,74.24
2023-05-01T00:35:04.924Z,76.38
2023-05-01T00:37:39.721Z,76.29
2023-05-01T00:40:09.785Z,75.85
2023-05-01T00:42:40.068Z,75.69
2023-05-01T00:45:09.877Z,75.02
2023-05-01T00:47:38.999Z,74.71
2023-05-01T00:50:10.518Z,74.76
2023-05-01T00:52:43.341Z,74.96
2023-05-01T00:55:14.349Z,75.89
2023-05-01T00:57:51.004Z,81.45
2023-05-01T01:00:22.440Z,81.90
2023-05-01T01:02:53.871Z,80.63
2023-05-01T01:05:28.343Z,81.07
2023-05-01T01:08:06.919Z,83.59
2023-05-01T01:10:44.889Z,82.88
2023-05-01T01:13:21.605Z,82.16
2023-05-01T01:15:58.247Z,83.80
2023-05-01T01:18:36.086Z,84.48
2023-05-01T01:21:13.828Z,83.65
2023-05-01T01:24:10.268Z,86.60
2023-05-01T01:27:26.140Z,85.28
2023-05-01T01:30:30.862Z,84.08
2023-05-01T01:33:31.214Z,84.36
2023-05-01T01:36:10.567Z,85.46
2023-05-01T01:38:45.307Z,86.97
2023-05-01T01:41:21.128Z,86.78
2023-05-01T01:43:59.614Z,86.85
2023-05-01T01:46:31.121Z,88.12
2023-05-01T01:49:03.583Z,87.08
2023-05-01T01:51:39.581Z,85.92
2023-05-01T01:54:11.378Z,85.06
2023-05-01T01:56:45.417Z,88.06
2023-05-01T01:59:15.994Z,90.57
2023-05-01T02:01:46.933Z,89.20
2023-05-01T02:04:20.623Z,91.80
2023-05-01T02:06:54.434Z,92.68
2023-05-01T02:09:24.896Z,93.80
2023-05-01T02:11:58.985Z,94.96
2023-05-01T02:14:29.728Z,95.39
2023-05-01T02:16:58.966Z,95.17
2023-05-01T02:19:28.741Z,94.04
2023-05-01T02:22:03.139Z,97.43
2023-05-01T02:24:35.456Z,98.54
2023-05-01T02:27:15.811Z,99.26
2023-05-01T02:29:46.949Z,98.80
2023-05-01T02:32:15.731Z,98.04
2023-05-01T02:34:46.466Z,97.95
2023-05-01T02:37:17.312Z,97.28
2023-05-01T02:39:48.862Z,96.75
2023-05-01T02:42:20.289Z,97.00
2023-05-01T02:45:02.641Z,97.21
2023-05-01T02:47:36.218Z,96.86
2023-05-01T02:50:07.524Z,96.48
2023-05-01T02:52:41.755Z,97.22
2023-05-01T02:55:29.333Z,96.99
2023-05-01T02:58:01.617Z,98.45
2023-05-01T03:00:30.453Z,97.77
2023-05-01T03:03:02.977Z,97.48
2023-05-01T03:05:34.675Z,97.29
2023-05-01T03:08:05.356Z,96.45
2023-05-01T03:10:39.227Z,95.96
2023-05-01T03:13:08.828Z,95.48
2023-05-01T03:15:38.498Z,94.82
2023-05-01T03:18:07.773Z,94.80
2023-05-01T03:20:37.698Z,94.76
2023-05-01T03:23:09.233Z,94.58
2023-05-01T03:25:40.342Z,94.86
2023-05-01T03:28:09.548Z,95.45
2023-05-01T03:30:38.332Z,95.37
2023-05-01T03:33:07.363Z,96.07
2023-05-01T03:35:36.525Z,95.26
2023-05-01T03:38:10.920Z,94.50
2023-05-01T03:41:15.578Z,94.11
2023-05-01T03:44:11.583Z,93.95
2023-05-01T03:46:44.474Z,93.91
2023-05-01T03:49:20.936Z,93.92
2023-05-01T03:51:50.686Z,93.80
2023-05-01T03:54:24.594Z,95.10
2023-05-01T03:57:01.697Z,94.89
2023-05-01T03:59:30.526Z,93.67
2023-05-01T04:02:00.534Z,93.15
2023-05-01T04:04:32.400Z,92.82
2023-05-01T04:07:01.801Z,92.42
2023-05-01T04:09:32.238Z,91.96
2023-05-01T04:12:02.336Z,91.83
2023-05-01T04:14:31.310Z,91.95
2023-05-01T04:17:00.958Z,91.75
2023-05-01T04:19:34.851Z,91.62
2023-05-01T04:22:05.629Z,91.52
2023-05-01T04:24:37.665Z,91.32
2023-05-01T04:27:06.907Z,91.08
2023-05-01T04:29:35.795Z,90.68
2023-05-01T04:32:04.865Z,91.06
2023-05-01T04:34:33.740Z,91.08
2023-05-01T04:37:03.737Z,90.59
2023-05-01T04:39:32.568Z,90.29
2023-05-01T04:42:03.679Z,90.37
2023-05-01T04:44:34.226Z,90.11
2023-05-01T04:47:04.168Z,88.11
2023-05-01T04:49:33.137Z,87.59
2023-05-01T04:52:02.031Z,87.62
2023-05-01T04:54:41.014Z,86.39
2023-05-01T04:57:11.449Z,85.31
2023-05-01T04:59:40.869Z,85.96
2023-05-01T05:02:10.028Z,86.08
2023-05-01T05:04:38.763Z,82.48
2023-05-01T05:07:09.203Z,83.49
2023-05-01T05:10:00.790Z,80.10
2023-05-01T05:12:31.199Z,79.07
2023-05-01T05:15:00.237Z,77.21
2023-05-01T05:17:31.163Z,75.57
2023-05-01T05:19:59.947Z,75.73
2023-05-01T05:22:28.731Z,75.00
2023-05-01T05:25:21.467Z,74.69
2023-05-01T05:27:51.682Z,75.56
2023-05-01T05:30:20.722Z,76.42
2023-05-01T05:32:49.569Z,75.28
2023-05-01T05:35:18.562Z,75.23
2023-05-01T05:37:47.580Z,75.60
2023-05-01T05:40:16.782Z,75.16
2023-05-01T05:42:56.667Z,75.46
2023-05-01T05:45:29.230Z,75.07
2023-05-01T05:47:58.640Z,73.41
2023-05-01T05:50:29.386Z,73.47
2023-05-01T05:52:58.173Z,73.76
2023-05-01T05:55:28.208Z,72.37
2023-05-01T05:58:04.515Z,72.99
2023-05-01T06:00:33.823Z,71.12
2023-05-01T06:03:07.104Z,71.32
2023-05-01T06:05:37.607Z,72.44
2023-05-01T06:08:06.640Z,72.75
2023-05-01T06:10:36.728Z,72.24
2023-05-01T06:13:13.889Z,72.69
2023-05-01T06:15:46.905Z,72.80
2023-05-01T06:18:16.055Z,71.62
2023-05-01T06:20:45.147Z,71.18
2023-05-01T06:23:13.946Z,71.20
2023-05-01T06:25:54.052Z,71.29
2023-05-01T06:28:24.316Z,70.76
2023-05-01T06:30:53.199Z,70.39
2023-05-01T06:33:22.707Z,70.20
2023-05-01T06:36:03.170Z,69.68
2023-05-01T06:38:34.345Z,67.47
2023-05-01T06:41:05.366Z,67.09
2023-05-01T06:43:35.553Z,67.57
2023-05-01T06:46:04.458Z,66.55
2023-05-01T06:48:33.348Z,65.13
2023-05-01T06:51:04.780Z,64.23
2023-05-01T06:53:33.557Z,63.71
2023-05-01T06:56:02.351Z,63.13
2023-05-01T06:58:31.119Z,62.92
2023-05-01T07:01:01.498Z,61.93
2023-05-01T07:03:30.490Z,62.16
2023-05-01T07:05:59.369Z,61.56
2023-05-01T07:08:28.573Z,61.96
2023-05-01T07:10:57.499Z,61.13
2023-05-01T07:13:26.437Z,60.98
2023-05-01T07:15:55.353Z,60.81
2023-05-01T07:18:25.730Z,59.86
2023-05-01T07:20:54.673Z,60.28
2023-05-01T07:23:25.809Z,59.33
2023-05-01T07:25:55.259Z,58.63
2023-05-01T07:28:24.024Z,58.84
2023-05-01T07:30:52.823Z,57.96
2023-05-01T07:33:21.710Z,57.29
2023-05-01T07:35:51.975Z,56.61
2023-05-01T07:38:20.859Z,54.93
2023-05-01T07:40:49.777Z,54.46
2023-05-01T07:43:18.594Z,54.08
2023-05-01T07:45:58.321Z,50.47
2023-05-01T07:48:27.596Z,51.02
2023-05-01T07:50:58.111Z,50.81
2023-05-01T07:53:26.852Z,49.13
2023-05-01T07:55:55.576Z,47.07
2023-05-01T07:58:24.382Z,47.65
2023-05-01T08:00:53.184Z,48.42
2023-05-01T08:03:22.223Z,46.31
2023-05-01T08:05:51.284Z,46.49
2023-05-01T08:08:21.382Z,47.85
2023-05-01T08:10:50.181Z,47.84
2023-05-01T08:13:19.126Z,48.01
2023-05-01T08:15:48.754Z,47.99
2023-05-01T08:18:21.120Z,47.04
2023-05-01T08:20:50.748Z,46.33
2023-05-01T08:23:20.942Z,44.78
2023-05-01T08:25:51.666Z,44.50
2023-05-01T08:28:21.844Z,44.48
2023-05-01T08:30:50.710Z,44.45
2023-05-01T08:33:20.076Z,44.97
2023-05-01T08:35:49.527Z,44.89
2023-05-01T08:38:18.485Z,44.11
2023-05-01T08:40:53.872Z,44.98
2023-05-01T08:43:24.293Z,45.14
2023-05-01T08:45:55.934Z,44.64
2023-05-01T08:48:27.112Z,45.42
2023-05-01T08:50:59.364Z,45.49
2023-05-01T08:53:29.490Z,45.50
2023-05-01T08:56:01.564Z,45.32
2023-05-01T08:58:32.285Z,45.73
2023-05-01T09:01:03.096Z,45.07
2023-05-01T09:03:34.074Z,45.10
2023-05-01T09:06:04.975Z,44.99
2023-05-01T09:08:33.775Z,44.77
2023-05-01T09:11:06.323Z,45.15
2023-05-01T09:13:35.428Z,44.33
2023-05-01T09:16:05.817Z,44.11
2023-05-01T09:18:36.637Z,43.77
2023-05-01T09:21:05.533Z,43.96
2023-05-01T09:23:36.046Z,43.80
2023-05-01T09:26:08.038Z,41.43
2023-05-01T09:28:44.458Z,41.90
2023-05-01T09:31:23.707Z,42.72
2023-05-01T09:33:55.230Z,42.53
2023-05-01T09:36:25.359Z,42.32
2023-05-01T09:38:54.265Z,43.05
2023-05-01T09:41:25.141Z,42.64
2023-05-01T09:43:55.051Z,42.14
2023-05-01T09:46:25.536Z,42.47
2023-05-01T09:48:56.207Z,42.60
2023-05-01T09:51:28.071Z,42.87
2023-05-01T09:53:58.547Z,42.64
2023-05-01T09:56:30.281Z,42.55
2023-05-01T09:59:01.627Z,41.66
2023-05-01T10:01:40.664Z,40.54
2023-05-01T10:04:10.165Z,41.07
2023-05-01T10:06:39.608Z,39.66
2023-05-01T10:09:16.684Z,40.62
2023-05-01T10:11:55.770Z,40.42
2023-05-01T10:14:26.931Z,40.28
2023-05-01T10:16:57.800Z,39.72
2023-05-01T10:19:27.197Z,40.04
2023-05-01T10:21:56.290Z,40.14
2023-05-01T10:24:25.414Z,40.05
2023-05-01T10:26:56.627Z,39.92
2023-05-01T10:29:28.946Z,39.22
2023-05-01T10:31:57.977Z,39.56
2023-05-01T10:34:28.633Z,39.98
2023-05-01T10:37:01.820Z,40.06
2023-05-01T10:39:34.636Z,40.28
2023-05-01T10:42:11.204Z,40.25
2023-05-01T10:44:41.166Z,37.84
2023-05-01T10:47:47.549Z,38.35
2023-05-01T10:50:17.486Z,37.95
2023-05-01T10:53:18.230Z,38.53
2023-05-01T10:55:48.464Z,38.35
2023-05-01T10:58:58.028Z,38.72
2023-05-01T11:01:34.365Z,37.74
2023-05-01T11:04:05.366Z,37.67
2023-05-01T11:06:34.327Z,37.85
2023-05-01T11:09:04.630Z,37.95
2023-05-01T11:11:50.467Z,37.78
2023-05-01T11:14:20.753Z,36.99
2023-05-01T11:16:49.811Z,36.62
2023-05-01T11:19:50.282Z,36.72
2023-05-01T11:22:20.458Z,35.56
2023-05-01T11:24:49.964Z,36.46
2023-05-01T11:27:18.783Z,35.24
2023-05-01T11:29:50.876Z,35.37
2023-05-01T11:32:28.114Z,33.43
2023-05-01T11:34:57.609Z,34.01
2023-05-01T11:37:42.100Z,32.53
2023-05-01T11:40:22.122Z,33.34
2023-05-01T11:42:51.989Z,33.47
2023-05-01T11:45:22.431Z,33.43
2023-05-01T11:47:51.400Z,33.33
2023-05-01T11:50:21.938Z,33.44
2023-05-01T11:52:53.764Z,33.10
2023-05-01T11:55:31.784Z,33.30
2023-05-01T11:58:00.914Z,33.43
2023-05-01T12:00:33.867Z,32.93
2023-05-01T12:03:04.396Z,33.24
2023-05-01T12:05:35.624Z,33.04
2023-05-01T12:08:17.114Z,32.98
2023-05-01T12:10:47.431Z,30.32
2023-05-01T12:13:17.296Z,30.90
2023-05-01T12:15:49.468Z,30.65
2023-05-01T12:18:19.064Z,30.70
2023-05-01T12:20:50.324Z,30.93
2023-05-01T12:23:19.992Z,30.64
2023-05-01T12:25:49.066Z,31.39
2023-05-01T12:28:20.531Z,31.77
2023-05-01T12:30:50.784Z,30.17
2023-05-01T12:33:21.942Z,30.87
2023-05-01T12:35:51.675Z,31.38
2023-05-01T12:38:24.132Z,31.33
2023-05-01T12:40:54.944Z,30.36
2023-05-01T12:43:30.852Z,28.91
2023-05-01T12:46:01.263Z,28.31
2023-05-01T12:48:30.855Z,28.70
2023-05-01T12:50:59.879Z,28.84
2023-05-01T12:53:29.724Z,28.80
2023-05-01T12:55:59.653Z,29.32
2023-05-01T12:58:51.294Z,28.64
2023-05-01T13:01:28.502Z,29.02
2023-05-01T13:03:58.072Z,29.19
2023-05-01T13:06:34.715Z,29.53
2023-05-01T13:09:11.188Z,28.63
2023-05-01T13:11:40.634Z,29.01
2023-05-01T13:14:10.523Z,28.58
2023-05-01T13:16:47.865Z,27.31
2023-05-01T13:19:28.936Z,28.00
2023-05-01T13:21:58.892Z,27.79
2023-05-01T13:24:39.210Z,27.09
2023-05-01T13:27:09.514Z,27.19
2023-05-01T13:29:39.050Z,27.56
2023-05-01T13:32:13.468Z,27.52
2023-05-01T13:34:44.686Z,27.63
2023-05-01T13:37:34.078Z,27.14
2023-05-01T13:40:03.579Z,26.88
2023-05-01T13:42:33.705Z,26.61
2023-05-01T13:45:06.426Z,26.86
2023-05-01T13:47:40.592Z,27.04
2023-05-01T13:50:11.962Z,26.74
2023-05-01T13:52:44.257Z,27.05
2023-05-01T13:55:13.632Z,25.66
2023-05-01T13:57:43.424Z,24.27
2023-05-01T14:00:19.306Z,24.82
2023-05-01T14:02:53.053Z,25.23
2023-05-01T14:05:27.376Z,25.74
2023-05-01T14:07:58.232Z,25.21
2023-05-01T14:10:29.646Z,25.23
2023-05-01T14:12:59.335Z,25.73
2023-05-01T14:15:28.864Z,26.12
2023-05-01T14:18:01.158Z,26.22
2023-05-01T14:20:30.152Z,26.13
2023-05-01T14:22:58.980Z,26.41
2023-05-01T14:25:34.602Z,27.07
2023-05-01T14:28:07.856Z,27.18
2023-05-01T14:30:38.632Z,26.76
2023-05-01T14:33:09.999Z,26.58
2023-05-01T14:35:44.908Z,26.57
2023-05-01T14:38:15.191Z,27.08
2023-05-01T14:40:44.665Z,26.96
2023-05-01T14:43:17.083Z,26.90
2023-05-01T14:45:49.104Z,27.08
2023-05-01T14:48:25.094Z,27.54
2023-05-01T14:50:55.306Z,27.17
2023-05-01T14:53:24.322Z,27.06
2023-05-01T14:55:54.121Z,26.74
2023-05-01T14:58:23.000Z,26.63
2023-05-01T15:00:52.360Z,26.77
2023-05-01T15:03:23.378Z,27.18
2023-05-01T15:05:52.413Z,26.61
2023-05-01T15:08:21.292Z,26.59
2023-05-01T15:10:50.100Z,26.57
2023-05-01T15:13:19.700Z,26.69
2023-05-01T15:15:48.553Z,27.01
2023-05-01T15:18:17.391Z,26.74
2023-05-01T15:20:47.699Z,27.22
2023-05-01T15:23:16.705Z,27.29
2023-05-01T15:25:45.490Z,27.41
2023-05-01T15:28:14.903Z,27.56
2023-05-01T15:30:46.863Z,27.66
2023-05-01T15:33:18.818Z,27.79
2023-05-01T15:35:51.194Z,27.20
2023-05-01T15:38:25.539Z,26.76
2023-05-01T15:40:57.574Z,27.24
2023-05-01T15:43:27.583Z,27.48
2023-05-01T15:46:05.613Z,27.50
2023-05-01T15:48:35.664Z,27.84
2023-05-01T15:51:07.402Z,27.96
2023-05-01T15:53:36.519Z,28.09
2023-05-01T15:56:06.620Z,28.15
2023-05-01T15:58:36.138Z,28.00
2023-05-01T16:01:05.176Z,28.48
2023-05-01T16:03:35.132Z,28.63
2023-05-01T16:06:08.762Z,29.20
2023-05-01T16:08:39.152Z,29.35
2023-05-01T16:11:11.190Z,29.81
2023-05-01T16:13:49.017Z,29.80
2023-05-01T16:16:24.823Z,30.07
2023-05-01T16:18:56.843Z,30.14
2023-05-01T16:21:29.329Z,30.39
2023-05-01T16:24:02.949Z,30.56
2023-05-01T16:26:35.394Z,30.64
2023-05-01T16:29:09.217Z,30.94
2023-05-01T16:31:48.031Z,31.02
2023-05-01T16:34:18.668Z,31.18
2023-05-01T16:36:52.467Z,31.34
2023-05-01T16:39:23.182Z,31.55
2023-05-01T16:41:53.541Z,31.65
2023-05-01T16:44:24.050Z,31.62
2023-05-01T16:46:55.130Z,31.13
2023-05-01T16:49:24.977Z,31.15
2023-05-01T16:51:57.283Z,31.20
2023-05-01T16:54:31.896Z,31.31
2023-05-01T16:57:01.495Z,31.42
2023-05-01T16:59:30.549Z,31.65
2023-05-01T17:01:59.445Z,31.57
2023-05-01T17:04:28.574Z,31.63
2023-05-01T17:06:58.974Z,31.75
2023-05-01T17:09:28.011Z,31.75
2023-05-01T17:11:59.051Z,31.72
2023-05-01T17:14:28.878Z,32.07
2023-05-01T17:16:59.161Z,31.93
2023-05-01T17:19:28.030Z,32.12
2023-05-01T17:21:58.969Z,32.10
2023-05-01T17:24:28.016Z,31.95
2023-05-01T17:26:57.374Z,32.19
2023-05-01T17:29:26.854Z,31.96
2023-05-01T17:31:55.723Z,31.70
2023-05-01T17:34:24.561Z,31.82
2023-05-01T17:36:54.799Z,31.90
2023-05-01T17:39:28.213Z,31.95
2023-05-01T17:41:57.196Z,32.42
2023-05-01T17:44:25.936Z,32.37
2023-05-01T17:46:54.710Z,32.62
2023-05-01T17:49:24.126Z,32.78
2023-05-01T17:51:52.961Z,32.99
2023-05-01T17:54:22.014Z,33.73
2023-05-01T17:56:52.252Z,33.83
2023-05-01T17:59:21.106Z,33.85
2023-05-01T18:01:50.632Z,34.27
2023-05-01T18:04:19.704Z,35.36
2023-05-01T18:06:48.645Z,36.19
2023-05-01T18:09:17.459Z,36.18
2023-05-01T18:11:46.557Z,36.15
2023-05-01T18:14:16.811Z,35.93
2023-05-01T18:16:45.865Z,35.81
2023-05-01T18:19:14.861Z,35.95
2023-05-01T18:21:43.742Z,36.71
2023-05-01T18:24:12.502Z,36.32
2023-05-01T18:26:41.290Z,36.21
2023-05-01T18:29:10.137Z,36.24
2023-05-01T18:31:40.350Z,36.47
2023-05-01T18:34:10.234Z,36.88
2023-05-01T18:36:39.094Z,37.02
2023-05-01T18:39:07.885Z,36.88
2023-05-01T18:41:36.691Z,37.02
2023-05-01T18:44:05.542Z,37.21
2023-05-01T18:46:34.684Z,37.21
2023-05-01T18:49:04.952Z,37.74
2023-05-01T18:51:33.779Z,37.79
2023-05-01T18:54:04.842Z,37.94
2023-05-01T18:56:33.797Z,37.87
2023-05-01T18:59:03.270Z,37.77
2023-05-01T19:01:32.290Z,37.83
2023-05-01T19:04:01.264Z,37.85
2023-05-01T19:06:31.644Z,37.98
2023-05-01T19:09:01.208Z,37.90
2023-05-01T19:11:31.862Z,37.88
2023-05-01T19:14:00.847Z,38.52
2023-05-01T19:16:29.593Z,38.82
2023-05-01T19:18:58.372Z,38.96
2023-05-01T19:21:27.973Z,39.13
2023-05-01T19:23:58.234Z,39.32
2023-05-01T19:26:29.209Z,39.39
2023-05-01T19:28:57.959Z,39.23
2023-05-01T19:31:26.939Z,39.33
2023-05-01T19:33:57.562Z,39.58
2023-05-01T19:36:26.829Z,39.45
2023-05-01T19:38:56.945Z,39.36
2023-05-01T19:41:26.513Z,39.29
2023-05-01T19:43:55.207Z,39.09
2023-05-01T19:46:24.315Z,38.85
2023-05-01T19:48:53.188Z,38.84
2023-05-01T19:51:21.978Z,39.15
2023-05-01T19:53:50.742Z,39.14
2023-05-01T19:56:20.885Z,38.98
2023-05-01T19:58:49.603Z,38.65
2023-05-01T20:01:18.427Z,38.54
2023-05-01T20:03:47.692Z,38.58
2023-05-01T20:06:16.718Z,38.81
2023-05-01T20:08:45.546Z,38.89
2023-05-01T20:11:14.413Z,38.85
2023-05-01T20:13:45.502Z,39.16
2023-05-01T20:16:14.275Z,39.64
2023-05-01T20:18:43.099Z,39.58
2023-05-01T20:21:11.980Z,39.47
2023-05-01T20:23:41.285Z,39.52
2023-05-01T20:26:10.167Z,39.48
2023-05-01T20:28:38.999Z,40.20
2023-05-01T20:31:09.549Z,40.51
2023-05-01T20:33:38.901Z,40.82
2023-05-01T20:36:08.285Z,40.31
2023-05-01T20:38:43.055Z,40.58
2023-05-01T20:41:12.206Z,40.57
2023-05-01T20:43:41.285Z,41.40
2023-05-01T20:46:11.459Z,41.68
2023-05-01T20:48:40.285Z,41.81
2023-05-01T20:51:09.209Z,41.79
2023-05-01T20:53:38.063Z,41.72
2023-05-01T20:56:07.144Z,42.56
2023-05-01T20:58:37.637Z,43.72
2023-05-01T21:01:06.741Z,43.89
2023-05-01T21:03:37.019Z,44.16
2023-05-01T21:06:06.813Z,44.10
2023-05-01T21:08:35.918Z,44.51
2023-05-01T21:11:04.779Z,45.06
2023-05-01T21:13:34.203Z,45.27
2023-05-01T21:16:05.595Z,44.98
2023-05-01T21:18:37.621Z,44.97
2023-05-01T21:21:06.530Z,44.92
2023-05-01T21:23:35.229Z,44.93
2023-05-01T21:26:04.437Z,44.82
2023-05-01T21:28:33.316Z,45.09
2023-05-01T21:31:02.150Z,45.38
2023-05-01T21:33:31.017Z,46.55
2023-05-01T21:36:02.509Z,46.35
2023-05-01T21:38:41.052Z,46.72
2023-05-01T21:41:12.941Z,47.81
2023-05-01T21:43:44.296Z,48.99
2023-05-01T21:46:18.171Z,51.22
2023-05-01T21:48:53.944Z,52.16
2023-05-01T21:51:28.768Z,52.65
2023-05-01T21:53:57.810Z,53.03
2023-05-01T21:56:26.764Z,52.95
2023-05-01T21:59:02.911Z,52.82
2023-05-01T22:01:31.980Z,52.31
2023-05-01T22:04:02.544Z,52.49
2023-05-01T22:06:35.094Z,52.83
2023-05-01T22:09:04.094Z,52.81
2023-05-01T22:11:33.202Z,53.10
2023-05-01T22:14:02.301Z,52.77
2023-05-01T22:16:31.151Z,53.08
2023-05-01T22:19:00.459Z,53.09
2023-05-01T22:21:31.803Z,52.63
2023-05-01T22:24:02.962Z,52.51
2023-05-01T22:26:31.781Z,52.27
2023-05-01T22:29:00.532Z,52.38
2023-05-01T22:31:29.268Z,51.84
2023-05-01T22:33:58.126Z,52.50
2023-05-01T22:36:26.821Z,53.15
2023-05-01T22:38:55.517Z,55.30
2023-05-01T22:41:25.640Z,61.40
2023-05-01T22:43:54.340Z,63.35
2023-05-01T22:46:23.335Z,67.49
2023-05-01T22:48:52.030Z,69.89
2023-05-01T22:51:20.732Z,70.49
2023-05-01T22:53:49.695Z,72.55
2023-05-01T22:56:18.514Z,76.30
2023-05-01T22:58:48.685Z,79.12
2023-05-01T23:01:17.396Z,82.45
2023-05-01T23:03:46.222Z,85.91
2023-05-01T23:06:15.079Z,87.70
2023-05-01T23:08:43.890Z,89.12
2023-05-01T23:11:13.270Z,90.78
2023-05-01T23:13:47.305Z,91.84
2023-05-01T23:16:18.164Z,92.64
2023-05-01T23:18:46.939Z,92.07
2023-05-01T23:21:19.289Z,90.96
2023-05-01T23:23:48.781Z,94.63
2023-05-01T23:26:26.267Z,97.82
2023-05-01T23:28:55.288Z,96.83
2023-05-01T23:31:29.234Z,98.56
2023-05-01T23:33:58.056Z,99.62
2023-05-01T23:36:28.192Z,99.29
2023-05-01T23:38:56.896Z,99.49
2023-05-01T23:41:26.135Z,100.00
2023-05-01T23:43:54.927Z,98.79
2023-05-01T23:46:25.162Z,98.86
2023-05-01T23:48:53.952Z,99.66
2023-05-01T23:51:22.739Z,100.00
2023-05-01T23:53:51.787Z,100.00
2023-05-01T23:56:22.118Z,100.00
2023-05-01T23:58:50.869Z,100.00
